createdAt,value
2018-09-18T00:01:32.082Z,99924.29
2018-09-18T00:04:01.065Z,99932.00
2018-09-18T00:06:30.035Z,99929.34
2018-09-18T00:08:59.061Z,99927.53
2018-09-18T00:11:28.026Z,99927.59
2018-09-18T00:13:57.015Z,99924.44
2018-09-18T00:16:25.993Z,99916.22
2018-09-18T00:18:54.970Z,99920.60
2018-09-18T00:21:23.920Z,99923.66
2018-09-18T00:23:52.901Z,99909.22
2018-09-18T00:26:21.876Z,99910.84
2018-09-18T00:28:50.906Z,99908.05
2018-09-18T00:31:19.924Z,99910.49
2018-09-18T00:33:48.966Z,99896.31
2018-09-18T00:36:17.956Z,99908.17
2018-09-18T00:38:47.217Z,99907.65
2018-09-18T00:41:16.209Z,99904.15
2018-09-18T00:43:45.258Z,99904.63
2018-09-18T00:46:14.251Z,99904.94
2018-09-18T00:48:43.216Z,99907.69
2018-09-18T00:51:12.203Z,99903.75
2018-09-18T00:53:41.182Z,99900.83
2018-09-18T00:56:10.181Z,99900.16
2018-09-18T00:58:39.164Z,99887.20
2018-09-18T01:01:08.147Z,99900.61
2018-09-18T01:03:37.141Z,99901.94
2018-09-18T01:06:06.131Z,99896.21
2018-09-18T01:08:35.117Z,99892.83
2018-09-18T01:11:04.117Z,99880.97
2018-09-18T01:13:33.097Z,99894.61
2018-09-18T01:16:02.661Z,99889.61
2018-09-18T01:18:36.972Z,99897.13
2018-09-18T01:21:05.965Z,99895.47
2018-09-18T01:23:35.029Z,99887.73
2018-09-18T01:26:04.013Z,99883.27
2018-09-18T01:28:33.240Z,99883.22
2018-09-18T01:31:02.401Z,99882.21
2018-09-18T01:33:31.414Z,99882.86
2018-09-18T01:36:00.422Z,99881.19
2018-09-18T01:38:29.427Z,99878.20
2018-09-18T01:40:58.414Z,99874.27
2018-09-18T01:43:27.417Z,99878.63
2018-09-18T01:45:56.402Z,99877.08
2018-09-18T01:48:25.450Z,99879.11
2018-09-18T01:50:54.441Z,99880.83
2018-09-18T01:53:23.480Z,99884.06
2018-09-18T01:55:53.725Z,99886.79
2018-09-18T01:58:22.728Z,99877.45
2018-09-18T02:00:51.705Z,99876.13
2018-09-18T02:03:20.694Z,99877.31
2018-09-18T02:05:49.771Z,99882.55
2018-09-18T02:08:18.770Z,99874.09
2018-09-18T02:10:47.834Z,99878.29
2018-09-18T02:13:16.837Z,99874.95
2018-09-18T02:15:45.821Z,99876.31
2018-09-18T02:18:14.822Z,99882.75
2018-09-18T02:20:43.814Z,99887.04
2018-09-18T02:23:12.857Z,99886.34
2018-09-18T02:25:41.901Z,99882.27
2018-09-18T02:28:10.905Z,99884.93
2018-09-18T02:30:39.915Z,99888.47
2018-09-18T02:33:08.914Z,99884.46
2018-09-18T02:35:37.893Z,99888.16
2018-09-18T02:38:06.926Z,99893.40
2018-09-18T02:40:35.885Z,99878.50
2018-09-18T02:43:04.932Z,99889.65
2018-09-18T02:45:33.912Z,99885.23
2018-09-18T02:48:02.954Z,99890.95
2018-09-18T02:50:31.926Z,99890.95
2018-09-18T02:53:00.992Z,99896.66
2018-09-18T02:55:29.965Z,99895.86
2018-09-18T02:57:58.962Z,99906.35
2018-09-18T03:00:27.934Z,99903.70
2018-09-18T03:02:56.994Z,99902.13
2018-09-18T03:05:26.149Z,99902.84
2018-09-18T03:07:55.146Z,99901.81
2018-09-18T03:10:24.137Z,99903.31
2018-09-18T03:12:53.137Z,99904.50
2018-09-18T03:15:22.124Z,99901.08
2018-09-18T03:17:51.113Z,99904.80
2018-09-18T03:20:20.109Z,99901.69
2018-09-18T03:22:49.102Z,99898.80
2018-09-18T03:25:18.077Z,99900.95
2018-09-18T03:27:47.077Z,99899.23
2018-09-18T03:30:16.084Z,99897.64
2018-09-18T03:32:45.130Z,99888.03
2018-09-18T03:35:14.146Z,99895.34
2018-09-18T03:37:43.121Z,99889.61
2018-09-18T03:40:12.110Z,99882.61
2018-09-18T03:42:41.088Z,99885.16
2018-09-18T03:45:10.122Z,99888.13
2018-09-18T03:47:39.194Z,99884.36
2018-09-18T03:50:08.257Z,99880.34
2018-09-18T03:52:37.250Z,99880.91
2018-09-18T03:55:06.309Z,99876.15
2018-09-18T03:57:35.300Z,99871.30
2018-09-18T04:00:04.289Z,99866.04
2018-09-18T04:02:33.281Z,99877.06
2018-09-18T04:05:02.289Z,99866.97
2018-09-18T04:07:31.268Z,99865.31
2018-09-18T04:10:00.267Z,99866.30
2018-09-18T04:12:29.239Z,99867.35
2018-09-18T04:14:58.274Z,99869.59
2018-09-18T04:17:27.573Z,99877.86
2018-09-18T04:19:56.530Z,99882.55
2018-09-18T04:22:25.518Z,99883.31
2018-09-18T04:24:54.510Z,99886.73
2018-09-18T04:27:24.151Z,99890.89
2018-09-18T04:29:53.121Z,99889.86
2018-09-18T04:32:22.126Z,99885.99
2018-09-18T04:34:51.122Z,99887.94
2018-09-18T04:37:20.085Z,99892.88
2018-09-18T04:39:49.087Z,99892.53
2018-09-18T04:42:18.073Z,99893.55
2018-09-18T04:44:47.062Z,99900.62
2018-09-18T04:47:16.044Z,99902.69
2018-09-18T04:49:45.098Z,99904.36
2018-09-18T04:52:14.074Z,99911.62
2018-09-18T04:54:43.111Z,99912.35
2018-09-18T04:57:12.105Z,99924.09
2018-09-18T04:59:41.125Z,99919.00
2018-09-18T05:02:10.176Z,99918.98
2018-09-18T05:04:39.130Z,99921.13
2018-09-18T05:07:08.121Z,99917.41
2018-09-18T05:09:37.201Z,99920.44
2018-09-18T05:12:06.273Z,99920.59
2018-09-18T05:14:35.254Z,99921.55
2018-09-18T05:17:04.222Z,99923.41
2018-09-18T05:19:33.189Z,99923.88
2018-09-18T05:22:02.177Z,99930.78
2018-09-18T05:24:31.162Z,99924.11
2018-09-18T05:27:00.135Z,99935.33
2018-09-18T05:29:29.372Z,99927.86
2018-09-18T05:31:58.358Z,99936.22
2018-09-18T05:34:27.362Z,99935.86
2018-09-18T05:36:56.369Z,99934.56
2018-09-18T05:39:25.379Z,99943.52
2018-09-18T05:41:54.385Z,99939.89
2018-09-18T05:44:23.409Z,99942.26
2018-09-18T05:46:52.388Z,99939.09
2018-09-18T05:49:21.382Z,99931.72
2018-09-18T05:51:50.353Z,99935.32
2018-09-18T05:54:19.515Z,99936.91
2018-09-18T05:56:48.530Z,99931.61
2018-09-18T05:59:17.554Z,99931.64
2018-09-18T06:01:46.609Z,99929.67
2018-09-18T06:04:15.787Z,99937.53
2018-09-18T06:06:44.789Z,99945.26
2018-09-18T06:09:14.183Z,99949.22
2018-09-18T06:11:43.217Z,99949.25
2018-09-18T06:14:12.302Z,99952.95
2018-09-18T06:16:41.360Z,99951.03
2018-09-18T06:19:10.545Z,99942.17
2018-09-18T06:24:43.004Z,99946.34
2018-09-18T06:27:11.973Z,99945.31
2018-09-18T06:29:40.943Z,99949.67
2018-09-18T06:32:09.923Z,99951.81
2018-09-18T06:34:38.984Z,99952.97
2018-09-18T06:37:08.273Z,99953.63
2018-09-18T06:39:37.237Z,99953.63
2018-09-18T06:45:09.396Z,99968.41
2018-09-18T06:47:38.470Z,99966.09
2018-09-18T06:50:07.562Z,99973.98
2018-09-18T06:52:36.640Z,99974.05
2018-09-18T06:55:06.021Z,99970.77
2018-09-18T06:57:35.089Z,99971.08
2018-09-18T07:00:04.062Z,99975.05
2018-09-18T07:02:33.107Z,99973.73
2018-09-18T07:05:02.076Z,99972.80
2018-09-18T07:07:31.247Z,99974.45
2018-09-18T07:10:00.227Z,99962.29
2018-09-18T07:12:29.307Z,99972.57
2018-09-18T07:14:58.299Z,99970.16
2018-09-18T07:17:27.291Z,99969.69
2018-09-18T07:19:56.368Z,99970.71
2018-09-18T07:22:25.385Z,99971.34
2018-09-18T07:24:54.382Z,99965.00
2018-09-18T07:27:23.396Z,99967.88
2018-09-18T07:29:52.443Z,99970.05
2018-09-18T07:32:21.447Z,99969.88
2018-09-18T07:34:50.449Z,99974.61
2018-09-18T07:37:19.551Z,99967.75
2018-09-18T07:39:48.631Z,99971.07
2018-09-18T07:42:17.744Z,99973.05
2018-09-18T07:44:46.739Z,99963.19
2018-09-18T07:47:15.819Z,99967.61
2018-09-18T07:49:44.808Z,99965.53
2018-09-18T07:52:14.831Z,99962.64
2018-09-18T07:54:44.020Z,99959.84
2018-09-18T07:57:13.042Z,99967.85
2018-09-18T07:59:42.022Z,99964.96
2018-09-18T08:02:12.363Z,99968.94
2018-09-18T08:04:41.327Z,99971.84
2018-09-18T08:07:10.317Z,99978.30
2018-09-18T08:09:39.303Z,99973.50
2018-09-18T08:12:08.319Z,99966.39
2018-09-18T08:14:38.339Z,99961.85
2018-09-18T08:17:07.457Z,99967.40
2018-09-18T08:19:36.619Z,99965.11
2018-09-18T08:22:05.487Z,99968.73
2018-09-18T08:24:34.451Z,99962.44
2018-09-18T08:27:03.438Z,99965.50
2018-09-18T08:29:32.619Z,99962.36
2018-09-18T08:32:01.607Z,99963.44
2018-09-18T08:34:30.700Z,99967.88
2018-09-18T08:36:59.682Z,99983.09
2018-09-18T08:39:28.680Z,99977.79
2018-09-18T08:41:57.668Z,99971.08
2018-09-18T08:44:26.658Z,99976.89
2018-09-18T08:46:55.640Z,99978.30
2018-09-18T08:49:24.607Z,99969.13
2018-09-18T08:51:53.671Z,99973.43
2018-09-18T08:54:22.607Z,99974.89
2018-09-18T08:56:51.590Z,99971.41
2018-09-18T08:59:20.673Z,99966.41
2018-09-18T09:01:49.639Z,99966.92
2018-09-18T09:04:18.644Z,99966.52
2018-09-18T09:06:47.666Z,99961.79
2018-09-18T09:09:16.706Z,99964.14
2018-09-18T09:11:46.077Z,99957.07
2018-09-18T09:14:15.173Z,99959.73
2018-09-18T09:16:44.163Z,99960.56
2018-09-18T09:19:13.171Z,99961.78
2018-09-18T09:21:42.139Z,99967.70
2018-09-18T09:24:11.149Z,99968.00
2018-09-18T09:26:40.127Z,99963.06
2018-09-18T09:29:09.105Z,99962.79
2018-09-18T09:31:38.087Z,99967.97
2018-09-18T09:34:07.098Z,99958.44
2018-09-18T09:36:36.070Z,99956.08
2018-09-18T09:39:08.078Z,99958.59
2018-09-18T09:41:37.239Z,99955.51
2018-09-18T09:44:06.271Z,99951.05
2018-09-18T09:46:35.288Z,99949.00
2018-09-18T09:49:04.263Z,99947.11
2018-09-18T09:51:33.359Z,99946.61
2018-09-18T09:54:02.308Z,99953.06
2018-09-18T09:56:31.297Z,99947.98
2018-09-18T09:59:00.279Z,99949.47
2018-09-18T10:01:34.574Z,99953.20
2018-09-18T10:04:04.372Z,99956.47
2018-09-18T10:06:33.365Z,99952.80
2018-09-18T10:09:02.375Z,99944.20
2018-09-18T10:11:31.351Z,99946.47
2018-09-18T10:14:00.400Z,99941.92
2018-09-18T10:16:29.389Z,99942.98
2018-09-18T10:18:58.363Z,99935.92
2018-09-18T10:21:27.370Z,99945.91
2018-09-18T10:23:56.406Z,99937.83
2018-09-18T10:26:25.473Z,99938.98
2018-09-18T10:28:54.377Z,99937.06
2018-09-18T10:31:23.353Z,99932.30
2018-09-18T10:33:52.339Z,99934.22
2018-09-18T10:36:21.441Z,99925.77
2018-09-18T10:38:50.411Z,99925.66
2018-09-18T10:41:19.493Z,99924.80
2018-09-18T10:43:48.415Z,99918.84
2018-09-18T10:46:17.359Z,99914.10
2018-09-18T10:48:52.422Z,99909.48
2018-09-18T10:51:22.071Z,99901.30
2018-09-18T10:53:51.043Z,99905.00
2018-09-18T10:56:20.013Z,99900.72
2018-09-18T10:58:49.008Z,99895.95
2018-09-18T11:01:18.383Z,99896.64
2018-09-18T11:03:47.380Z,99889.42
2018-09-18T11:06:16.388Z,99894.95
2018-09-18T11:08:45.364Z,99888.03
2018-09-18T11:11:14.368Z,99886.63
2018-09-18T11:13:43.348Z,99889.77
2018-09-18T11:16:12.557Z,99889.72
2018-09-18T11:18:41.433Z,99889.31
2018-09-18T11:21:10.441Z,99882.56
2018-09-18T11:23:39.429Z,99881.05
2018-09-18T11:26:08.496Z,99881.98
2018-09-18T11:28:37.620Z,99879.41
2018-09-18T11:31:06.630Z,99871.37
2018-09-18T11:33:35.899Z,99877.20
2018-09-18T11:36:04.931Z,99895.00
2018-09-18T11:38:33.919Z,99888.53
2018-09-18T11:41:02.903Z,99893.02
2018-09-18T11:43:31.959Z,99887.74
2018-09-18T11:46:02.284Z,99885.97
2018-09-18T11:48:31.279Z,99876.54
2018-09-18T11:51:00.323Z,99860.64
2018-09-18T11:53:29.371Z,99859.98
2018-09-18T11:55:58.359Z,99871.36
2018-09-18T11:58:27.385Z,99861.70
2018-09-18T12:00:56.439Z,99863.91
2018-09-18T12:03:25.439Z,99855.94
2018-09-18T12:05:54.428Z,99855.45
2018-09-18T12:08:23.396Z,99852.88
2018-09-18T12:10:52.386Z,99853.06
2018-09-18T12:13:21.379Z,99848.45
2018-09-18T12:15:50.377Z,99849.59
2018-09-18T12:18:19.395Z,99852.28
2018-09-18T12:20:48.411Z,99858.66
2018-09-18T12:23:17.499Z,99840.03
2018-09-18T12:25:53.072Z,99844.95
2018-09-18T12:28:22.141Z,99848.78
2018-09-18T12:30:51.151Z,99848.19
2018-09-18T12:33:20.139Z,99845.34
2018-09-18T12:35:49.183Z,99852.15
2018-09-18T12:38:18.112Z,99839.88
2018-09-18T12:40:47.103Z,99831.66
2018-09-18T12:43:16.092Z,99835.38
2018-09-18T12:45:45.091Z,99832.50
2018-09-18T12:48:14.088Z,99829.39
2018-09-18T12:50:43.120Z,99825.55
2018-09-18T12:53:12.067Z,99822.49
2018-09-18T12:55:47.283Z,99820.54
2018-09-18T12:58:16.255Z,99821.59
2018-09-18T13:00:45.216Z,99808.89
2018-09-18T13:03:14.360Z,99814.88
2018-09-18T13:05:43.351Z,99808.30
2018-09-18T13:08:12.372Z,99810.86
2018-09-18T13:10:41.415Z,99804.85
2018-09-18T13:13:10.430Z,99799.95
2018-09-18T13:15:39.396Z,99806.28
2018-09-18T13:18:08.464Z,99801.09
2018-09-18T13:20:37.491Z,99793.88
2018-09-18T13:23:06.496Z,99788.19
2018-09-18T13:25:35.499Z,99794.41
2018-09-18T13:28:05.324Z,99783.14
2018-09-18T13:30:34.398Z,99778.78
2018-09-18T13:33:03.357Z,99784.65
2018-09-18T13:35:32.367Z,99777.80
2018-09-18T13:38:01.339Z,99770.22
2018-09-18T13:40:30.568Z,99768.59
2018-09-18T13:42:59.559Z,99768.62
2018-09-18T13:45:28.671Z,99758.27
2018-09-18T13:47:57.651Z,99755.19
2018-09-18T13:50:26.747Z,99755.56
2018-09-18T13:52:55.640Z,99758.88
2018-09-18T13:55:24.646Z,99756.42
2018-09-18T13:57:53.659Z,99747.28
2018-09-18T14:00:22.655Z,99752.38
2018-09-18T14:02:51.636Z,99746.48
2018-09-18T14:05:20.635Z,99737.04
2018-09-18T14:07:49.611Z,99736.66
2018-09-18T14:10:18.607Z,99734.35
2018-09-18T14:12:47.671Z,99735.38
2018-09-18T14:15:16.697Z,99738.98
2018-09-18T14:17:45.651Z,99743.84
2018-09-18T14:20:14.787Z,99733.15
2018-09-18T14:22:43.727Z,99731.37
2018-09-18T14:25:12.760Z,99736.57
2018-09-18T14:27:41.758Z,99732.05
2018-09-18T14:30:10.739Z,99728.49
2018-09-18T14:32:39.752Z,99725.55
2018-09-18T14:35:08.728Z,99726.89
2018-09-18T14:37:37.939Z,99719.33
2018-09-18T14:40:06.963Z,99726.03
2018-09-18T14:42:35.986Z,99728.84
2018-09-18T14:45:05.152Z,99722.73
2018-09-18T14:47:34.200Z,99722.45
2018-09-18T14:50:03.212Z,99717.23
2018-09-18T14:52:32.225Z,99714.62
2018-09-18T14:55:01.212Z,99719.52
2018-09-18T14:57:30.460Z,99728.30
2018-09-18T14:59:59.475Z,99713.21
2018-09-18T15:02:28.483Z,99717.36
2018-09-18T15:04:57.646Z,99724.54
2018-09-18T15:07:26.594Z,99716.36
2018-09-18T15:09:55.544Z,99723.20
2018-09-18T15:12:24.578Z,99729.13
2018-09-18T15:14:53.658Z,99733.59
2018-09-18T15:17:22.613Z,99736.42
2018-09-18T15:19:51.612Z,99732.45
2018-09-18T15:22:20.619Z,99733.53
2018-09-18T15:24:49.606Z,99740.38
2018-09-18T15:27:18.624Z,99743.49
2018-09-18T15:29:47.659Z,99740.61
2018-09-18T15:32:16.844Z,99742.73
2018-09-18T15:34:45.852Z,99745.28
2018-09-18T15:37:14.832Z,99746.30
2018-09-18T15:39:43.925Z,99745.81
2018-09-18T15:42:12.810Z,99737.92
2018-09-18T15:44:41.907Z,99738.09
2018-09-18T15:47:10.892Z,99740.06
2018-09-18T15:49:40.005Z,99743.92
2018-09-18T15:52:09.094Z,99751.02
2018-09-18T15:54:38.062Z,99755.19
2018-09-18T15:57:07.116Z,99755.41
2018-09-18T15:59:36.167Z,99754.60
2018-09-18T16:02:05.162Z,99744.09
2018-09-18T16:04:34.143Z,99743.70
2018-09-18T16:07:03.143Z,99749.56
2018-09-18T16:09:32.143Z,99746.77
2018-09-18T16:12:01.128Z,99742.11
2018-09-18T16:14:30.204Z,99740.61
2018-09-18T16:16:59.174Z,99738.61
2018-09-18T16:19:28.108Z,99749.11
2018-09-18T16:21:57.114Z,99748.74
2018-09-18T16:24:26.183Z,99746.45
2018-09-18T16:26:55.177Z,99737.75
2018-09-18T16:29:24.295Z,99734.52
2018-09-18T16:31:53.318Z,99741.79
2018-09-18T16:34:22.344Z,99736.98
2018-09-18T16:36:51.387Z,99740.34
2018-09-18T16:39:20.439Z,99738.26
2018-09-18T16:41:49.473Z,99738.70
2018-09-18T16:44:18.471Z,99741.91
2018-09-18T16:46:47.461Z,99745.06
2018-09-18T16:49:16.438Z,99748.72
2018-09-18T16:51:45.444Z,99739.59
2018-09-18T16:54:14.456Z,99739.22
2018-09-18T16:56:43.430Z,99736.69
2018-09-18T16:59:12.457Z,99742.19
2018-09-18T17:01:41.626Z,99734.20
2018-09-18T17:04:10.621Z,99744.31
2018-09-18T17:06:39.657Z,99743.70
2018-09-18T17:09:08.882Z,99745.52
2018-09-18T17:11:38.069Z,99747.27
2018-09-18T17:14:07.199Z,99749.03
2018-09-18T17:16:36.254Z,99746.27
2018-09-18T17:19:05.324Z,99759.75
2018-09-18T17:21:34.308Z,99760.16
2018-09-18T17:24:03.469Z,99764.14
2018-09-18T17:26:32.459Z,99761.97
2018-09-18T17:29:01.704Z,99765.45
2018-09-18T17:31:30.680Z,99763.88
2018-09-18T17:33:59.673Z,99772.67
2018-09-18T17:36:28.672Z,99777.56
2018-09-18T17:38:57.785Z,99780.46
2018-09-18T17:41:26.858Z,99791.95
2018-09-18T17:43:55.803Z,99793.48
2018-09-18T17:46:24.779Z,99805.80
2018-09-18T17:48:53.862Z,99801.61
2018-09-18T17:51:22.871Z,99804.17
2018-09-18T17:53:51.982Z,99813.00
2018-09-18T17:56:20.954Z,99815.28
2018-09-18T17:58:49.996Z,99818.19
2018-09-18T18:01:19.027Z,99820.89
2018-09-18T18:03:48.157Z,99822.33
2018-09-18T18:06:17.131Z,99826.70
2018-09-18T18:08:46.216Z,99828.97
2018-09-18T18:11:15.202Z,99830.42
2018-09-18T18:13:44.230Z,99838.69
2018-09-18T18:16:13.291Z,99841.03
2018-09-18T18:18:42.336Z,99846.06
2018-09-18T18:21:11.315Z,99844.41
2018-09-18T18:23:40.402Z,99855.84
2018-09-18T18:26:09.308Z,99856.52
2018-09-18T18:28:38.344Z,99865.30
2018-09-18T18:31:07.365Z,99859.83
2018-09-18T18:33:36.457Z,99872.59
2018-09-18T18:36:05.748Z,99874.39
2018-09-18T18:38:34.740Z,99885.09
2018-09-18T18:41:03.801Z,99877.39
2018-09-18T18:43:32.739Z,99887.05
2018-09-18T18:46:01.807Z,99888.27
2018-09-18T18:48:30.878Z,99894.52
2018-09-18T18:50:59.830Z,99887.56
2018-09-18T18:53:28.823Z,99897.02
2018-09-18T18:55:57.810Z,99904.27
2018-09-18T18:58:26.792Z,99903.72
2018-09-18T19:00:55.792Z,99903.54
2018-09-18T19:03:24.809Z,99905.23
2018-09-18T19:05:53.816Z,99909.69
2018-09-18T19:08:22.792Z,99908.55
2018-09-18T19:10:51.805Z,99912.86
2018-09-18T19:13:20.772Z,99909.66
2018-09-18T19:15:49.763Z,99911.42
2018-09-18T19:18:18.745Z,99910.16
2018-09-18T19:20:47.987Z,99907.45
2018-09-18T19:23:17.098Z,99915.53
2018-09-18T19:25:46.082Z,99910.05
2018-09-18T19:28:15.016Z,99902.03
2018-09-18T19:30:44.011Z,99899.15
2018-09-18T19:33:13.151Z,99900.06
2018-09-18T19:35:42.031Z,99900.99
2018-09-18T19:38:11.025Z,99901.55
2018-09-18T19:40:40.028Z,99909.09
2018-09-18T19:43:09.189Z,99909.32
2018-09-18T19:45:38.131Z,99907.50
2018-09-18T19:48:07.117Z,99903.90
2018-09-18T19:50:36.195Z,99907.17
2018-09-18T19:53:05.123Z,99900.31
2018-09-18T19:55:34.141Z,99905.03
2018-09-18T19:58:03.323Z,99909.94
2018-09-18T20:00:32.320Z,99906.84
2018-09-18T20:03:01.291Z,99904.77
2018-09-18T20:05:30.291Z,99913.14
2018-09-18T20:07:59.274Z,99922.58
2018-09-18T20:10:28.274Z,99926.67
2018-09-18T20:12:57.279Z,99931.64
2018-09-18T20:15:26.281Z,99937.14
2018-09-18T20:17:55.259Z,99929.62
2018-09-18T20:20:24.340Z,99936.89
2018-09-18T20:22:53.341Z,99935.56
2018-09-18T20:25:22.323Z,99938.63
2018-09-18T20:27:51.297Z,99944.74
2018-09-18T20:30:20.296Z,99945.22
2018-09-18T20:32:49.273Z,99947.86
2018-09-18T20:35:18.300Z,99943.14
2018-09-18T20:37:47.280Z,99942.87
2018-09-18T20:40:16.295Z,99949.34
2018-09-18T20:42:45.276Z,99952.98
2018-09-18T20:45:14.283Z,99956.95
2018-09-18T20:47:43.364Z,99964.03
2018-09-18T20:50:12.356Z,99969.95
2018-09-18T20:52:41.342Z,99971.25
2018-09-18T20:55:10.335Z,99972.83
2018-09-18T20:57:39.380Z,99967.23
2018-09-18T21:00:08.400Z,99973.81
2018-09-18T21:02:37.379Z,99970.60
2018-09-18T21:05:06.442Z,99967.97
2018-09-18T21:07:35.427Z,99970.40
2018-09-18T21:10:04.454Z,99965.33
2018-09-18T21:12:33.526Z,99981.31
2018-09-18T21:15:02.599Z,99976.45
2018-09-18T21:17:31.880Z,99982.59
2018-09-18T21:20:00.923Z,99985.65
2018-09-18T21:22:29.921Z,99992.06
2018-09-18T21:25:13.723Z,99996.94
2018-09-18T21:27:43.935Z,99999.49
2018-09-18T21:30:13.862Z,99995.45
2018-09-18T21:32:42.908Z,99994.80
2018-09-18T21:35:11.852Z,99987.77
2018-09-18T21:37:41.171Z,99990.44
2018-09-18T21:40:10.277Z,99999.48
2018-09-18T21:42:39.274Z,99999.00
2018-09-18T21:45:08.298Z,99998.77
2018-09-18T21:47:37.295Z,99997.09
2018-09-18T21:50:06.268Z,99994.78
2018-09-18T21:52:35.252Z,99996.84
2018-09-18T21:55:04.251Z,99998.60
2018-09-18T21:57:33.330Z,100003.50
2018-09-18T22:00:02.319Z,100001.82
2018-09-18T22:02:31.332Z,99999.14
2018-09-18T22:05:00.313Z,100003.45
2018-09-18T22:07:29.307Z,100012.20
2018-09-18T22:09:58.283Z,100005.23
2018-09-18T22:12:27.326Z,100000.87
2018-09-18T22:14:56.279Z,100004.91
2018-09-18T22:17:31.637Z,100001.17
2018-09-18T22:20:00.626Z,100005.16
2018-09-18T22:22:29.624Z,100004.67
2018-09-18T22:24:58.614Z,100004.46
2018-09-18T22:27:27.626Z,100006.91
2018-09-18T22:29:56.692Z,100003.59
2018-09-18T22:32:25.737Z,100009.96
2018-09-18T22:34:54.727Z,100015.30
2018-09-18T22:37:23.772Z,100011.80
2018-09-18T22:39:52.747Z,100007.78
2018-09-18T22:42:22.039Z,100022.08
2018-09-18T22:44:51.219Z,100017.84
2018-09-18T22:47:20.217Z,100017.08
2018-09-18T22:49:49.459Z,100020.95
2018-09-18T22:52:18.530Z,100012.58
2018-09-18T22:54:47.512Z,100026.86
2018-09-18T22:57:16.610Z,100027.13
2018-09-18T22:59:45.550Z,100032.98
2018-09-18T23:02:14.611Z,100031.92
2018-09-18T23:04:43.611Z,100036.11
2018-09-18T23:07:12.624Z,100045.13
2018-09-18T23:09:41.615Z,100048.36
2018-09-18T23:12:10.688Z,100051.41
2018-09-18T23:14:39.699Z,100051.98
2018-09-18T23:17:08.700Z,100047.91
2018-09-18T23:19:37.727Z,100053.57
2018-09-18T23:22:06.752Z,100043.70
2018-09-18T23:24:35.738Z,100042.09
2018-09-18T23:27:04.745Z,100038.47
2018-09-18T23:29:33.832Z,100043.39
2018-09-18T23:32:02.826Z,100040.42
2018-09-18T23:34:31.823Z,100043.15
2018-09-18T23:37:00.810Z,100055.38
2018-09-18T23:39:29.863Z,100059.12
2018-09-18T23:41:58.857Z,100062.52
2018-09-18T23:44:28.243Z,100061.47
2018-09-18T23:46:57.269Z,100063.56
2018-09-18T23:49:26.261Z,100067.03
2018-09-18T23:51:55.267Z,100071.00
2018-09-18T23:54:24.283Z,100072.26
2018-09-18T23:56:53.271Z,100068.67
2018-09-18T23:59:22.281Z,100066.39
